createdAt,value
2018-11-14T00:00:30.407Z,6.50
2018-11-14T00:03:00.351Z,6.60
2018-11-14T00:05:29.422Z,6.70
2018-11-14T00:07:58.048Z,6.70
2018-11-14T00:10:26.863Z,6.80
2018-11-14T00:12:55.551Z,6.80
2018-11-14T00:15:25.342Z,6.70
2018-11-14T00:17:54.185Z,6.60
2018-11-14T00:20:22.873Z,6.60
2018-11-14T00:22:52.181Z,6.80
2018-11-14T00:25:20.996Z,6.90
2018-11-14T00:27:49.738Z,6.90
2018-11-14T00:30:20.687Z,7.00
2018-11-14T00:32:49.371Z,7.00
2018-11-14T00:35:18.132Z,7.10
2018-11-14T00:37:47.706Z,7.10
2018-11-14T00:40:17.202Z,7.10
2018-11-14T00:42:46.706Z,7.20
2018-11-14T00:45:17.049Z,7.20
2018-11-14T00:47:47.286Z,7.30
2018-11-14T00:50:16.668Z,7.30
2018-11-14T00:52:45.992Z,7.20
2018-11-14T00:55:15.814Z,6.90
2018-11-14T00:57:45.823Z,6.80
2018-11-14T01:00:16.849Z,6.70
2018-11-14T01:02:45.962Z,6.70
2018-11-14T01:05:15.544Z,6.80
2018-11-14T01:07:44.336Z,6.80
2018-11-14T01:10:14.948Z,6.80
2018-11-14T01:12:44.226Z,6.80
2018-11-14T01:15:15.423Z,6.80
2018-11-14T01:17:44.425Z,6.90
2018-11-14T01:20:14.928Z,7.00
2018-11-14T01:22:44.247Z,7.00
2018-11-14T01:25:14.213Z,7.00
2018-11-14T01:27:43.567Z,7.00
2018-11-14T01:30:15.611Z,6.90
2018-11-14T01:32:44.920Z,6.90
2018-11-14T01:35:14.046Z,7.00
2018-11-14T01:37:42.880Z,7.10
2018-11-14T01:40:16.664Z,7.10
2018-11-14T01:42:47.783Z,7.00
2018-11-14T01:45:16.405Z,7.00
2018-11-14T01:47:45.231Z,7.00
2018-11-14T01:50:13.888Z,7.00
2018-11-14T01:52:42.473Z,6.90
2018-11-14T01:55:13.419Z,6.90
2018-11-14T01:57:42.015Z,7.00
2018-11-14T02:00:13.180Z,7.00
2018-11-14T02:02:42.162Z,6.90
2018-11-14T02:05:11.512Z,6.90
2018-11-14T02:07:40.332Z,6.90
2018-11-14T02:10:11.909Z,6.90
2018-11-14T02:12:41.095Z,6.80
2018-11-14T02:15:16.894Z,6.90
2018-11-14T02:17:45.923Z,6.90
2018-11-14T02:20:14.809Z,7.00
2018-11-14T02:22:44.241Z,6.90
2018-11-14T02:25:13.840Z,6.80
2018-11-14T02:27:42.690Z,6.70
2018-11-14T02:30:20.464Z,6.70
2018-11-14T02:32:49.327Z,6.60
2018-11-14T02:35:18.525Z,6.60
2018-11-14T02:37:47.828Z,6.50
2018-11-14T02:40:17.594Z,6.40
2018-11-14T02:42:46.384Z,6.30
2018-11-14T02:45:15.720Z,6.30
2018-11-14T02:47:44.302Z,6.20
2018-11-14T02:50:14.361Z,6.10
2018-11-14T02:52:43.408Z,5.90
2018-11-14T02:55:13.503Z,5.80
2018-11-14T02:57:42.719Z,5.70
2018-11-14T03:00:14.880Z,5.70
2018-11-14T03:02:44.095Z,5.70
2018-11-14T03:05:12.959Z,5.70
2018-11-14T03:07:41.553Z,5.60
2018-11-14T03:10:13.240Z,5.60
2018-11-14T03:12:42.433Z,5.60
2018-11-14T03:15:13.712Z,5.60
2018-11-14T03:17:42.650Z,5.70
2018-11-14T03:20:13.886Z,5.70
2018-11-14T03:22:42.784Z,5.70
2018-11-14T03:25:12.950Z,5.60
2018-11-14T03:27:41.795Z,5.60
2018-11-14T03:30:13.128Z,5.60
2018-11-14T03:32:42.752Z,5.50
2018-11-14T03:35:12.473Z,5.30
2018-11-14T03:37:41.318Z,5.20
2018-11-14T03:40:12.189Z,5.10
2018-11-14T03:42:41.238Z,5.00
2018-11-14T03:45:11.592Z,4.90
2018-11-14T03:47:41.126Z,4.90
2018-11-14T03:50:10.385Z,4.70
2018-11-14T03:52:39.364Z,4.60
2018-11-14T03:55:07.980Z,4.50
2018-11-14T03:57:37.009Z,4.50
2018-11-14T04:00:09.989Z,4.40
2018-11-14T04:02:38.743Z,4.40
2018-11-14T04:05:07.932Z,4.40
2018-11-14T04:07:36.498Z,4.40
2018-11-14T04:10:06.663Z,4.40
2018-11-14T04:12:36.054Z,4.40
2018-11-14T04:15:05.153Z,4.40
2018-11-14T04:17:33.978Z,4.40
2018-11-14T04:20:02.718Z,4.30
2018-11-14T04:22:31.513Z,4.30
2018-11-14T04:25:00.062Z,4.30
2018-11-14T04:27:28.631Z,4.20
2018-11-14T04:29:57.555Z,4.20
2018-11-14T04:32:26.380Z,4.30
2018-11-14T04:34:55.038Z,4.40
2018-11-14T04:37:23.828Z,4.50
2018-11-14T04:39:52.750Z,4.60
2018-11-14T04:42:21.498Z,4.70
2018-11-14T04:44:50.465Z,4.70
2018-11-14T04:47:19.289Z,4.70
2018-11-14T04:49:48.343Z,4.70
2018-11-14T04:52:16.993Z,4.70
2018-11-14T04:54:45.847Z,4.70
2018-11-14T04:57:14.670Z,4.60
2018-11-14T04:59:44.435Z,4.60
2018-11-14T05:02:13.208Z,4.40
2018-11-14T05:04:41.848Z,4.30
2018-11-14T05:07:11.167Z,4.20
2018-11-14T05:09:39.922Z,4.20
2018-11-14T05:12:08.615Z,4.20
2018-11-14T05:14:37.698Z,4.10
2018-11-14T05:17:07.124Z,4.00
2018-11-14T05:19:36.182Z,4.00
2018-11-14T05:22:05.314Z,3.90
2018-11-14T05:24:33.957Z,3.80
2018-11-14T05:27:02.644Z,3.80
2018-11-14T05:29:31.703Z,3.70
2018-11-14T05:32:00.300Z,3.70
2018-11-14T05:34:29.361Z,3.70
2018-11-14T05:36:58.339Z,3.70
2018-11-14T05:39:26.985Z,3.50
2018-11-14T05:41:56.069Z,3.70
2018-11-14T05:44:24.663Z,3.60
2018-11-14T05:46:53.589Z,3.60
2018-11-14T05:49:22.573Z,3.50
2018-11-14T05:51:51.208Z,3.40
2018-11-14T05:54:19.869Z,3.30
2018-11-14T05:56:48.619Z,3.40
2018-11-14T05:59:17.328Z,3.30
2018-11-14T06:01:46.149Z,3.20
2018-11-14T06:04:14.852Z,3.30
2018-11-14T06:06:43.635Z,3.20
2018-11-14T06:09:14.069Z,3.20
2018-11-14T06:11:43.000Z,3.20
2018-11-14T06:14:11.883Z,3.10
2018-11-14T06:16:40.844Z,3.20
2018-11-14T06:19:09.660Z,3.30
2018-11-14T06:21:38.820Z,3.20
2018-11-14T06:24:07.479Z,3.10
2018-11-14T06:26:36.395Z,3.00
2018-11-14T06:29:05.524Z,2.90
2018-11-14T06:31:34.350Z,2.80
2018-11-14T06:34:02.964Z,2.70
2018-11-14T06:36:31.565Z,2.70
2018-11-14T06:39:00.518Z,2.70
2018-11-14T06:41:29.262Z,2.70
2018-11-14T06:43:58.357Z,2.60
2018-11-14T06:46:27.120Z,2.60
2018-11-14T06:48:56.011Z,2.70
2018-11-14T06:51:24.624Z,2.70
2018-11-14T06:53:53.490Z,2.70
2018-11-14T06:56:22.192Z,2.70
2018-11-14T06:58:50.988Z,2.60
2018-11-14T07:01:19.740Z,2.60
2018-11-14T07:03:48.640Z,2.60
2018-11-14T07:06:18.129Z,2.70
2018-11-14T07:08:46.825Z,2.70
2018-11-14T07:11:15.715Z,2.70
2018-11-14T07:13:44.661Z,2.70
2018-11-14T07:16:13.354Z,2.70
2018-11-14T07:18:42.159Z,2.70
2018-11-14T07:21:11.435Z,2.70
2018-11-14T07:23:40.303Z,2.80
2018-11-14T07:26:08.871Z,2.80
2018-11-14T07:28:37.716Z,2.80
2018-11-14T07:31:06.465Z,2.80
2018-11-14T07:33:35.391Z,2.90
2018-11-14T07:36:04.175Z,2.90
2018-11-14T07:38:35.268Z,2.80
2018-11-14T07:41:05.239Z,2.70
2018-11-14T07:43:34.848Z,2.70
2018-11-14T07:46:03.874Z,2.80
2018-11-14T07:48:33.031Z,2.70
2018-11-14T07:51:02.385Z,2.80
2018-11-14T07:53:31.288Z,2.80
2018-11-14T07:55:59.876Z,2.80
2018-11-14T07:58:28.779Z,2.90
2018-11-14T08:00:58.011Z,3.00
2018-11-14T08:03:27.453Z,3.10
2018-11-14T08:05:56.785Z,3.20
2018-11-14T08:08:25.798Z,3.20
2018-11-14T08:10:54.899Z,3.30
2018-11-14T08:13:25.111Z,3.40
2018-11-14T08:15:56.136Z,3.50
2018-11-14T08:18:25.494Z,3.60
2018-11-14T08:20:54.321Z,3.70
2018-11-14T08:23:23.157Z,3.70
2018-11-14T08:25:52.233Z,3.80
2018-11-14T08:28:21.154Z,3.90
2018-11-14T08:30:50.051Z,4.00
2018-11-14T08:33:18.879Z,4.00
2018-11-14T08:35:47.553Z,4.20
2018-11-14T08:38:16.291Z,4.20
2018-11-14T08:40:45.340Z,4.30
2018-11-14T08:43:14.235Z,4.50
2018-11-14T08:45:43.085Z,4.60
2018-11-14T08:48:11.769Z,4.70
2018-11-14T08:50:40.509Z,5.00
2018-11-14T08:53:10.289Z,5.30
2018-11-14T08:55:39.009Z,5.60
2018-11-14T08:58:09.848Z,5.80
2018-11-14T09:00:38.846Z,6.10
2018-11-14T09:03:08.879Z,6.40
2018-11-14T09:05:37.838Z,6.80
2018-11-14T09:08:06.495Z,7.20
2018-11-14T09:10:35.562Z,7.80
2018-11-14T09:13:04.527Z,8.60
2018-11-14T09:15:33.238Z,9.00
2018-11-14T09:18:02.051Z,9.20
2018-11-14T09:20:31.029Z,9.20
2018-11-14T09:22:59.650Z,9.10
2018-11-14T09:25:30.426Z,9.30
2018-11-14T09:28:00.325Z,9.60
2018-11-14T09:30:29.455Z,10.20
2018-11-14T09:32:58.610Z,11.00
2018-11-14T09:35:27.839Z,12.00
2018-11-14T09:37:57.989Z,12.90
2018-11-14T09:40:28.038Z,13.70
2018-11-14T09:42:56.654Z,14.50
2018-11-14T09:45:26.722Z,14.90
2018-11-14T09:47:55.785Z,15.30
2018-11-14T09:50:27.448Z,15.40
2018-11-14T09:52:57.834Z,15.60
2018-11-14T09:55:26.435Z,15.90
2018-11-14T09:57:55.343Z,16.30
2018-11-14T10:00:25.617Z,16.90
2018-11-14T10:02:55.961Z,17.40
2018-11-14T10:05:25.403Z,16.70
2018-11-14T10:07:54.092Z,18.50
2018-11-14T10:10:23.229Z,18.70
2018-11-14T10:12:52.270Z,18.90
2018-11-14T10:15:22.474Z,18.80
2018-11-14T10:17:51.305Z,19.30
2018-11-14T10:20:22.431Z,19.60
2018-11-14T10:22:51.343Z,19.60
2018-11-14T10:25:20.529Z,19.20
2018-11-14T10:27:49.954Z,18.70
2018-11-14T10:30:26.445Z,18.10
2018-11-14T10:32:55.364Z,17.40
2018-11-14T10:35:24.151Z,17.40
2018-11-14T10:37:53.423Z,16.90
2018-11-14T10:40:29.634Z,16.30
2018-11-14T10:42:58.552Z,17.50
2018-11-14T10:45:27.846Z,18.00
2018-11-14T10:47:56.708Z,18.20
2018-11-14T10:50:26.708Z,18.90
2018-11-14T10:52:55.682Z,19.40
2018-11-14T10:55:24.833Z,20.50
2018-11-14T10:57:53.969Z,21.20
2018-11-14T11:00:30.761Z,21.30
2018-11-14T11:04:07.144Z,21.80
2018-11-14T11:06:50.120Z,22.00
2018-11-14T11:09:24.060Z,23.10
2018-11-14T11:14:01.127Z,23.60
2018-11-14T11:16:29.872Z,23.80
2018-11-14T11:18:58.953Z,24.00
2018-11-14T11:21:27.836Z,24.70
2018-11-14T11:23:56.658Z,25.20
2018-11-14T11:26:25.310Z,24.70
2018-11-14T11:28:54.280Z,24.50
2018-11-14T11:31:23.104Z,24.50
2018-11-14T11:33:51.714Z,25.50
2018-11-14T11:36:20.670Z,25.30
2018-11-14T11:38:49.312Z,24.20
2018-11-14T11:41:18.065Z,24.60
2018-11-14T11:43:46.945Z,25.30
2018-11-14T11:46:15.800Z,25.20
2018-11-14T11:48:44.614Z,25.10
2018-11-14T11:51:13.373Z,25.80
2018-11-14T11:53:42.233Z,25.60
2018-11-14T11:56:11.107Z,25.10
2018-11-14T11:58:39.979Z,25.50
2018-11-14T12:01:08.934Z,25.30
2018-11-14T12:03:37.639Z,25.30
2018-11-14T12:06:06.845Z,25.60
2018-11-14T12:08:35.754Z,25.70
2018-11-14T12:11:04.863Z,26.40
2018-11-14T12:13:33.552Z,26.10
2018-11-14T12:16:02.634Z,25.30
2018-11-14T12:18:31.305Z,25.40
2018-11-14T12:21:00.163Z,24.70
2018-11-14T12:23:28.849Z,24.90
2018-11-14T12:25:57.934Z,24.80
2018-11-14T12:28:26.676Z,25.00
2018-11-14T12:30:55.500Z,25.50
2018-11-14T12:33:24.163Z,25.90
2018-11-14T12:35:53.056Z,25.40
2018-11-14T12:38:21.925Z,25.20
2018-11-14T12:40:50.570Z,25.40
2018-11-14T12:43:19.218Z,25.80
2018-11-14T12:45:48.041Z,25.50
2018-11-14T12:48:16.813Z,25.50
2018-11-14T12:50:45.711Z,25.20
2018-11-14T12:53:14.669Z,25.00
2018-11-14T12:55:43.604Z,24.80
2018-11-14T12:58:12.344Z,25.10
2018-11-14T13:00:41.098Z,25.50
2018-11-14T13:03:09.774Z,26.20
2018-11-14T13:05:38.808Z,25.80
2018-11-14T13:08:07.424Z,25.00
2018-11-14T13:10:36.310Z,25.70
2018-11-14T13:13:05.275Z,25.50
2018-11-14T13:15:34.201Z,25.30
2018-11-14T13:18:03.148Z,26.20
2018-11-14T13:20:31.983Z,25.40
2018-11-14T13:23:01.122Z,26.00
2018-11-14T13:25:30.134Z,26.00
2018-11-14T13:27:59.115Z,25.30
2018-11-14T13:30:28.287Z,25.60
2018-11-14T13:32:57.239Z,25.60
2018-11-14T13:35:26.444Z,25.70
2018-11-14T13:37:55.273Z,26.20
2018-11-14T13:40:24.086Z,25.80
2018-11-14T13:42:52.728Z,24.10
2018-11-14T13:45:21.714Z,22.10
2018-11-14T13:47:50.762Z,21.10
2018-11-14T13:50:21.853Z,21.90
2018-11-14T13:52:51.034Z,22.10
2018-11-14T13:55:21.243Z,22.60
2018-11-14T13:57:51.224Z,22.50
2018-11-14T14:00:21.115Z,22.70
2018-11-14T14:02:50.647Z,22.40
2018-11-14T14:05:20.771Z,22.00
2018-11-14T14:07:49.489Z,21.70
2018-11-14T14:10:18.659Z,21.20
2018-11-14T14:12:48.825Z,20.60
2018-11-14T14:15:20.005Z,19.80
2018-11-14T14:17:49.493Z,19.80
2018-11-14T14:20:19.330Z,20.00
2018-11-14T14:22:48.396Z,20.10
2018-11-14T14:25:18.216Z,19.80
2018-11-14T14:27:47.208Z,19.60
2018-11-14T14:30:17.632Z,19.00
2018-11-14T14:32:46.905Z,18.70
2018-11-14T14:35:16.714Z,18.10
2018-11-14T14:37:45.404Z,18.40
2018-11-14T14:40:15.469Z,17.90
2018-11-14T14:42:44.584Z,17.30
2018-11-14T14:45:15.231Z,16.50
2018-11-14T14:47:44.125Z,15.70
2018-11-14T14:50:14.525Z,15.00
2018-11-14T14:52:43.853Z,14.40
2018-11-14T14:55:16.263Z,13.90
2018-11-14T14:57:45.886Z,13.40
2018-11-14T15:00:16.207Z,13.00
2018-11-14T15:02:45.040Z,12.60
2018-11-14T15:05:14.286Z,12.30
2018-11-14T15:07:43.448Z,12.10
2018-11-14T15:10:14.202Z,11.90
2018-11-14T15:12:43.318Z,11.70
2018-11-14T15:15:12.595Z,11.50
2018-11-14T15:17:41.658Z,11.30
2018-11-14T15:20:12.782Z,11.00
2018-11-14T15:22:41.861Z,10.80
2018-11-14T15:25:13.901Z,10.60
2018-11-14T15:27:43.484Z,10.40
2018-11-14T15:30:15.294Z,10.10
2018-11-14T15:32:44.481Z,9.90
2018-11-14T15:35:13.844Z,9.70
2018-11-14T15:37:42.513Z,9.50
2018-11-14T15:40:15.032Z,9.30
2018-11-14T15:42:44.042Z,9.00
2018-11-14T15:45:15.421Z,9.00
2018-11-14T15:47:44.435Z,8.80
2018-11-14T15:50:16.719Z,8.60
2018-11-14T15:52:46.421Z,8.40
2018-11-14T15:55:16.946Z,8.20
2018-11-14T15:57:45.936Z,8.10
2018-11-14T16:00:19.964Z,7.90
2018-11-14T16:02:48.976Z,7.70
2018-11-14T16:05:19.215Z,7.60
2018-11-14T16:07:49.324Z,7.50
2018-11-14T16:10:19.412Z,7.40
2018-11-14T16:12:48.553Z,7.30
2018-11-14T16:15:33.387Z,7.30
2018-11-14T16:18:02.468Z,7.20
2018-11-14T16:20:31.376Z,7.10
2018-11-14T16:23:00.076Z,7.00
2018-11-14T16:25:29.643Z,6.80
2018-11-14T16:27:59.946Z,6.70
2018-11-14T16:30:30.100Z,6.60
2018-11-14T16:33:00.481Z,6.40
2018-11-14T16:35:29.356Z,6.40
2018-11-14T16:37:58.333Z,6.30
2018-11-14T16:40:28.714Z,6.30
2018-11-14T16:42:59.393Z,6.50
2018-11-14T16:45:28.242Z,6.60
2018-11-14T16:47:56.856Z,6.80
2018-11-14T16:50:25.904Z,7.10
2018-11-14T16:52:54.599Z,7.10
2018-11-14T16:55:23.859Z,6.80
2018-11-14T16:57:53.905Z,6.60
2018-11-14T17:00:24.510Z,6.40
2018-11-14T17:02:55.289Z,6.30
2018-11-14T17:05:25.660Z,6.10
2018-11-14T17:07:54.616Z,6.00
2018-11-14T17:10:23.946Z,6.00
2018-11-14T17:12:54.824Z,5.80
2018-11-14T17:15:24.820Z,5.80
2018-11-14T17:17:53.625Z,5.70
2018-11-14T17:20:23.185Z,5.60
2018-11-14T17:22:53.041Z,5.60
2018-11-14T17:25:21.977Z,5.50
2018-11-14T17:27:51.009Z,5.50
2018-11-14T17:30:21.334Z,5.50
2018-11-14T17:32:50.449Z,5.40
2018-11-14T17:35:19.747Z,5.30
2018-11-14T17:37:48.620Z,5.40
2018-11-14T17:40:21.621Z,5.60
2018-11-14T17:42:51.525Z,5.70
2018-11-14T17:45:22.235Z,5.60
2018-11-14T17:47:51.430Z,5.40
2018-11-14T17:50:22.840Z,5.20
2018-11-14T17:52:52.461Z,5.20
2018-11-14T17:55:22.315Z,5.20
2018-11-14T17:57:51.240Z,5.10
2018-11-14T18:00:25.317Z,5.20
2018-11-14T18:02:54.216Z,5.50
2018-11-14T18:05:24.350Z,5.40
2018-11-14T18:07:53.921Z,5.20
2018-11-14T18:10:23.902Z,5.10
2018-11-14T18:12:54.030Z,4.90
2018-11-14T18:15:22.881Z,4.80
2018-11-14T18:17:52.665Z,4.70
2018-11-14T18:20:23.935Z,4.60
2018-11-14T18:22:53.498Z,4.50
2018-11-14T18:25:22.523Z,4.50
2018-11-14T18:27:51.334Z,4.30
2018-11-14T18:30:21.924Z,4.30
2018-11-14T18:32:51.336Z,4.30
2018-11-14T18:35:20.990Z,4.20
2018-11-14T18:37:50.674Z,4.20
2018-11-14T18:40:21.098Z,4.20
2018-11-14T18:42:50.171Z,4.10
2018-11-14T18:45:21.531Z,3.90
2018-11-14T18:47:50.531Z,3.80
2018-11-14T18:50:20.172Z,3.70
2018-11-14T18:52:49.461Z,3.60
2018-11-14T18:55:19.575Z,3.70
2018-11-14T18:57:48.864Z,3.80
2018-11-14T19:00:20.873Z,3.80
2018-11-14T19:02:56.534Z,3.70
2018-11-14T19:05:25.261Z,3.60
2018-11-14T19:07:54.135Z,3.60
2018-11-14T19:10:27.460Z,3.50
2018-11-14T19:12:56.479Z,3.40
2018-11-14T19:15:26.521Z,3.40
2018-11-14T19:17:55.333Z,3.40
2018-11-14T19:20:25.591Z,3.30
2018-11-14T19:22:55.142Z,3.20
2018-11-14T19:25:26.290Z,3.30
2018-11-14T19:27:55.035Z,3.20
2018-11-14T19:30:25.259Z,3.30
2018-11-14T19:32:54.628Z,3.30
2018-11-14T19:35:23.530Z,3.20
2018-11-14T19:37:53.391Z,3.10
2018-11-14T19:40:23.574Z,3.10
2018-11-14T19:42:54.331Z,3.10
2018-11-14T19:45:24.627Z,3.00
2018-11-14T19:47:54.036Z,2.90
2018-11-14T19:50:23.356Z,2.90
2018-11-14T19:52:52.336Z,2.90
2018-11-14T19:55:22.417Z,1.70
2018-11-14T19:57:52.531Z,2.80
2018-11-14T20:00:24.551Z,2.80
2018-11-14T20:02:53.384Z,2.90
2018-11-14T20:05:22.301Z,2.80
2018-11-14T20:07:51.073Z,2.80
2018-11-14T20:10:22.441Z,2.70
2018-11-14T20:12:51.890Z,2.60
2018-11-14T20:15:24.031Z,2.60
2018-11-14T20:17:53.010Z,2.60
2018-11-14T20:20:23.925Z,2.50
2018-11-14T20:22:52.873Z,2.50
2018-11-14T20:25:21.746Z,2.50
2018-11-14T20:27:54.511Z,2.50
2018-11-14T20:30:26.512Z,2.50
2018-11-14T20:32:56.579Z,2.50
2018-11-14T20:35:26.171Z,4.90
2018-11-14T20:37:54.980Z,2.40
2018-11-14T20:40:24.082Z,2.30
2018-11-14T20:42:53.679Z,2.20
2018-11-14T20:45:24.585Z,2.20
2018-11-14T20:47:53.568Z,2.20
2018-11-14T20:50:23.605Z,2.10
2018-11-14T20:52:56.103Z,2.10
2018-11-14T20:55:25.136Z,2.10
2018-11-14T20:57:53.887Z,2.00
2018-11-14T21:00:25.237Z,2.00
2018-11-14T21:02:54.085Z,2.10
2018-11-14T21:05:23.515Z,2.00
2018-11-14T21:07:52.509Z,2.00
2018-11-14T21:10:23.072Z,1.90
2018-11-14T21:12:52.625Z,1.80
2018-11-14T21:15:23.010Z,1.80
2018-11-14T21:17:52.465Z,1.90
2018-11-14T21:20:21.231Z,1.80
2018-11-14T21:22:49.844Z,1.80
2018-11-14T21:25:19.791Z,1.70
2018-11-14T21:27:48.988Z,1.70
2018-11-14T21:30:21.244Z,1.60
2018-11-14T21:32:50.171Z,1.60
2018-11-14T21:35:22.189Z,1.60
2018-11-14T21:37:52.800Z,1.70
2018-11-14T21:40:21.740Z,1.70
2018-11-14T21:42:51.072Z,1.60
2018-11-14T21:45:21.396Z,1.50
2018-11-14T21:47:55.206Z,1.50
2018-11-14T21:50:25.101Z,1.60
2018-11-14T21:52:53.809Z,1.50
2018-11-14T21:55:22.525Z,1.50
2018-11-14T21:57:51.200Z,1.50
2018-11-14T22:00:21.657Z,1.50
2018-11-14T22:02:53.844Z,1.50
2018-11-14T22:05:22.714Z,1.40
2018-11-14T22:07:52.022Z,1.40
2018-11-14T22:10:22.075Z,1.30
2018-11-14T22:12:50.998Z,1.30
2018-11-14T22:15:21.888Z,1.40
2018-11-14T22:17:50.988Z,1.40
2018-11-14T22:20:21.131Z,1.40
2018-11-14T22:22:50.434Z,1.40
2018-11-14T22:25:20.636Z,1.30
2018-11-14T22:27:49.509Z,1.20
2018-11-14T22:30:22.674Z,1.20
2018-11-14T22:32:51.727Z,1.10
2018-11-14T22:35:22.162Z,1.10
2018-11-14T22:37:50.700Z,1.10
2018-11-14T22:40:21.034Z,1.00
2018-11-14T22:42:49.834Z,1.00
2018-11-14T22:45:33.174Z,1.10
2018-11-14T22:48:02.050Z,1.00
2018-11-14T22:50:31.061Z,1.00
2018-11-14T22:53:00.200Z,0.90
2018-11-14T22:55:28.880Z,0.90
2018-11-14T22:57:57.736Z,0.90
2018-11-14T23:00:29.000Z,0.90
2018-11-14T23:02:58.764Z,0.90
2018-11-14T23:05:27.775Z,0.90
2018-11-14T23:07:56.956Z,0.80
2018-11-14T23:10:26.130Z,0.80
2018-11-14T23:12:54.790Z,0.80
2018-11-14T23:15:24.454Z,0.80
2018-11-14T23:17:53.357Z,0.80
2018-11-14T23:20:22.241Z,0.80
2018-11-14T23:22:51.914Z,0.90
2018-11-14T23:25:21.333Z,0.80
2018-11-14T23:27:51.359Z,0.80
2018-11-14T23:30:21.172Z,0.80
2018-11-14T23:32:51.074Z,0.70
2018-11-14T23:35:21.415Z,0.70
2018-11-14T23:37:51.327Z,0.60
2018-11-14T23:40:20.319Z,0.60
2018-11-14T23:42:49.690Z,0.50
2018-11-14T23:45:19.440Z,0.50
2018-11-14T23:47:48.936Z,0.50
2018-11-14T23:50:19.209Z,0.40
2018-11-14T23:52:49.070Z,0.60
2018-11-14T23:55:18.424Z,0.60
2018-11-14T23:57:47.589Z,0.50
